createdAt,value
2023-07-11T00:00:14.192Z,19.6
2023-07-11T00:01:27.263Z,19.6
2023-07-11T00:02:41.248Z,19.6
2023-07-11T00:03:53.224Z,19.6
2023-07-11T00:05:06.234Z,19.6
2023-07-11T00:06:19.291Z,19.7
2023-07-11T00:07:32.262Z,19.7
2023-07-11T00:08:45.284Z,19.7
2023-07-11T00:09:58.196Z,19.7
2023-07-11T00:11:11.568Z,19.4
2023-07-11T00:12:24.367Z,19.4
2023-07-11T00:13:37.388Z,19.4
2023-07-11T00:14:50.213Z,19.4
2023-07-11T00:16:03.397Z,19.4
2023-07-11T00:17:16.254Z,19.4
2023-07-11T00:18:29.214Z,19.3
2023-07-11T00:19:42.219Z,19.3
2023-07-11T00:20:55.248Z,19.3
2023-07-11T00:22:08.230Z,19.3
2023-07-11T00:23:21.207Z,19.3
2023-07-11T00:24:34.216Z,19.3
2023-07-11T00:25:47.215Z,19.1
2023-07-11T00:27:00.225Z,19.1
2023-07-11T00:28:13.291Z,19.1
2023-07-11T00:29:26.318Z,19.1
2023-07-11T00:30:39.249Z,19.1
2023-07-11T00:31:52.406Z,18.9
2023-07-11T00:33:05.380Z,18.9
2023-07-11T00:34:18.256Z,18.9
2023-07-11T00:35:31.251Z,19
2023-07-11T00:36:44.282Z,19
2023-07-11T00:37:57.279Z,18.8
2023-07-11T00:39:10.244Z,18.8
2023-07-11T00:40:23.323Z,18.8
2023-07-11T00:41:36.216Z,18.8
2023-07-11T00:42:49.350Z,18.8
2023-07-11T00:44:02.204Z,18.8
2023-07-11T00:45:15.227Z,18.8
2023-07-11T00:46:28.283Z,18.8
2023-07-11T00:47:41.372Z,18.8
2023-07-11T00:48:54.256Z,18.6
2023-07-11T00:50:07.290Z,18.6
2023-07-11T00:51:20.235Z,18.6
2023-07-11T00:52:33.641Z,18.6
2023-07-11T00:53:46.297Z,18.6
2023-07-11T00:54:59.363Z,18.6
2023-07-11T00:56:12.223Z,18.6
2023-07-11T00:57:25.249Z,18.6
2023-07-11T00:58:38.206Z,18.7
2023-07-11T00:59:51.210Z,18.6
2023-07-11T01:01:04.259Z,18.7
2023-07-11T01:02:17.358Z,18.4
2023-07-11T01:03:30.338Z,18.5
2023-07-11T01:04:43.280Z,18.5
2023-07-11T01:05:56.273Z,18.5
2023-07-11T01:07:09.225Z,18.5
2023-07-11T01:08:22.319Z,18.5
2023-07-11T01:09:35.221Z,18.5
2023-07-11T01:10:48.166Z,18.5
2023-07-11T01:12:01.231Z,18.5
2023-07-11T01:13:14.716Z,18.5
2023-07-11T01:14:27.251Z,18.5
2023-07-11T01:15:40.209Z,18.5
2023-07-11T01:16:53.284Z,18.5
2023-07-11T01:18:06.332Z,18.5
2023-07-11T01:19:19.280Z,18.4
2023-07-11T01:20:32.227Z,18.5
2023-07-11T01:21:45.176Z,18.4
2023-07-11T01:22:58.139Z,18.4
2023-07-11T01:24:11.185Z,18.6
2023-07-11T01:25:24.178Z,18.6
2023-07-11T01:26:37.235Z,18.6
2023-07-11T01:27:50.226Z,18.6
2023-07-11T01:29:03.206Z,18.6
2023-07-11T01:30:16.336Z,18.6
2023-07-11T01:31:29.395Z,18.6
2023-07-11T01:32:42.257Z,18.6
2023-07-11T01:33:55.245Z,18.6
2023-07-11T01:35:08.441Z,18.6
2023-07-11T01:36:21.289Z,18.6
2023-07-11T01:37:34.381Z,18.6
2023-07-11T01:38:47.284Z,18.6
2023-07-11T01:40:00.258Z,18.8
2023-07-11T01:41:13.349Z,18.8
2023-07-11T01:42:26.201Z,18.8
2023-07-11T01:43:39.124Z,18.8
2023-07-11T01:44:52.132Z,18.8
2023-07-11T01:46:05.410Z,18.8
2023-07-11T01:47:18.295Z,18.8
2023-07-11T01:48:31.180Z,18.8
2023-07-11T01:49:44.193Z,18.8
2023-07-11T01:50:57.189Z,18.8
2023-07-11T01:52:10.180Z,18.8
2023-07-11T01:53:23.163Z,18.8
2023-07-11T01:54:36.194Z,18.8
2023-07-11T01:55:49.176Z,18.8
2023-07-11T01:57:02.340Z,18.8
2023-07-11T01:58:15.194Z,18.8
2023-07-11T01:59:28.187Z,18.8
2023-07-11T02:00:41.188Z,18.8
2023-07-11T02:01:54.208Z,18.8
2023-07-11T02:03:07.298Z,18.8
2023-07-11T02:04:20.210Z,18.8
2023-07-11T02:05:33.189Z,18.8
2023-07-11T02:06:46.268Z,18.8
2023-07-11T02:07:59.218Z,18.8
2023-07-11T02:09:12.177Z,18.8
2023-07-11T02:10:25.217Z,18.8
2023-07-11T02:11:38.205Z,18.8
2023-07-11T02:12:51.232Z,18.8
2023-07-11T02:14:04.203Z,18.8
2023-07-11T02:15:17.246Z,18.8
2023-07-11T02:16:30.308Z,18.8
2023-07-11T02:17:43.286Z,18.8
2023-07-11T02:18:56.322Z,18.8
2023-07-11T02:20:09.151Z,18.8
2023-07-11T02:21:22.178Z,18.8
2023-07-11T02:22:35.188Z,18.8
2023-07-11T02:23:48.263Z,18.8
2023-07-11T02:25:01.173Z,18.8
2023-07-11T02:26:14.198Z,18.8
2023-07-11T02:27:27.192Z,18.8
2023-07-11T02:28:40.211Z,18.8
2023-07-11T02:29:53.336Z,18.8
2023-07-11T02:31:06.194Z,18.8
2023-07-11T02:32:19.228Z,18.8
2023-07-11T02:33:32.250Z,18.8
2023-07-11T02:34:45.185Z,18.8
2023-07-11T02:35:58.211Z,18.6
2023-07-11T02:37:11.171Z,18.6
2023-07-11T02:38:24.320Z,18.6
2023-07-11T02:39:38.100Z,18.6
2023-07-11T02:40:50.196Z,18.6
2023-07-11T02:42:03.238Z,18.6
2023-07-11T02:43:16.192Z,18.6
2023-07-11T02:44:29.153Z,18.6
2023-07-11T02:45:42.215Z,18.6
2023-07-11T02:46:55.292Z,18.6
2023-07-11T02:48:08.238Z,18.6
2023-07-11T02:49:21.327Z,18.6
2023-07-11T02:50:34.148Z,18.6
2023-07-11T02:51:47.146Z,18.6
2023-07-11T02:53:00.189Z,18.6
2023-07-11T02:54:13.148Z,18.6
2023-07-11T02:55:26.162Z,18.6
2023-07-11T02:56:39.149Z,18.6
2023-07-11T02:57:52.180Z,18.6
2023-07-11T02:59:05.353Z,18.6
2023-07-11T03:00:18.215Z,18.6
2023-07-11T03:01:31.201Z,18.6
2023-07-11T03:02:44.274Z,18.6
2023-07-11T03:03:57.222Z,18.6
2023-07-11T03:05:10.220Z,18.6
2023-07-11T03:06:23.165Z,18.6
2023-07-11T03:07:36.202Z,18.6
2023-07-11T03:08:48.878Z,18.6
2023-07-11T03:10:02.176Z,18.6
2023-07-11T03:11:15.189Z,18.6
2023-07-11T03:12:28.224Z,18.6
2023-07-11T03:13:41.261Z,18.6
2023-07-11T03:14:54.153Z,18.6
2023-07-11T03:16:07.225Z,18.6
2023-07-11T03:17:20.181Z,18.6
2023-07-11T03:18:33.732Z,18.6
2023-07-11T03:19:46.136Z,18.6
2023-07-11T03:20:59.158Z,18.6
2023-07-11T03:22:12.148Z,18.6
2023-07-11T03:23:25.164Z,18.6
2023-07-11T03:24:38.183Z,18.6
2023-07-11T03:25:51.182Z,18.6
2023-07-11T03:27:04.163Z,18.6
2023-07-11T03:28:17.206Z,18.6
2023-07-11T03:29:30.171Z,18.6
2023-07-11T03:30:43.228Z,18.6
2023-07-11T03:31:56.237Z,18.6
2023-07-11T03:33:09.289Z,18.6
2023-07-11T03:34:22.272Z,18.6
2023-07-11T03:35:35.208Z,18.6
2023-07-11T03:36:48.169Z,18.6
2023-07-11T03:38:01.284Z,18.6
2023-07-11T03:39:14.195Z,18.6
2023-07-11T03:40:27.161Z,18.6
2023-07-11T03:41:40.159Z,18.6
2023-07-11T03:42:53.168Z,18.6
2023-07-11T03:44:06.145Z,18.6
2023-07-11T03:45:19.209Z,18.6
2023-07-11T03:46:32.144Z,18.6
2023-07-11T03:47:45.374Z,18.6
2023-07-11T03:48:58.143Z,18.6
2023-07-11T03:50:11.162Z,18.6
2023-07-11T03:51:24.159Z,18.6
2023-07-11T03:52:37.228Z,18.6
2023-07-11T03:53:50.156Z,18.6
2023-07-11T03:55:03.105Z,18.6
2023-07-11T03:56:16.147Z,18.6
2023-07-11T03:57:29.133Z,18.6
2023-07-11T03:58:42.196Z,18.6
2023-07-11T03:59:55.201Z,18.6
2023-07-11T04:01:08.153Z,18.6
2023-07-11T04:02:21.242Z,18.6
2023-07-11T04:03:34.278Z,18.6
2023-07-11T04:04:47.176Z,18.6
2023-07-11T04:06:00.181Z,18.6
2023-07-11T04:07:13.285Z,18.6
2023-07-11T04:08:26.162Z,18.6
2023-07-11T04:09:39.089Z,18.6
2023-07-11T04:10:52.139Z,18.6
2023-07-11T04:12:05.147Z,18.6
2023-07-11T04:13:18.147Z,18.7
2023-07-11T04:14:31.145Z,18.8
2023-07-11T04:15:44.177Z,18.8
2023-07-11T04:16:57.353Z,18.8
2023-07-11T04:18:10.215Z,18.8
2023-07-11T04:19:23.188Z,18.8
2023-07-11T04:20:36.187Z,18.8
2023-07-11T04:21:49.300Z,18.9
2023-07-11T04:23:02.100Z,19
2023-07-11T04:24:15.283Z,18.9
2023-07-11T04:25:28.159Z,18.9
2023-07-11T04:26:41.167Z,18.9
2023-07-11T04:27:54.169Z,18.9
2023-07-11T04:29:07.124Z,18.9
2023-07-11T04:30:20.220Z,19.1
2023-07-11T04:31:33.151Z,19.1
2023-07-11T04:32:46.186Z,19.1
2023-07-11T04:33:59.149Z,19.1
2023-07-11T04:35:12.148Z,19.1
2023-07-11T04:36:25.150Z,19.1
2023-07-11T04:37:38.178Z,19.2
2023-07-11T04:38:52.993Z,19.3
2023-07-11T04:40:04.129Z,19.3
2023-07-11T04:41:17.210Z,19.3
2023-07-11T04:42:30.121Z,19.4
2023-07-11T04:43:43.139Z,19.4
2023-07-11T04:44:56.153Z,19.4
2023-07-11T04:46:09.654Z,19.7
2023-07-11T04:47:22.167Z,19.7
2023-07-11T04:48:35.170Z,19.7
2023-07-11T04:49:48.198Z,19.7
2023-07-11T04:51:01.350Z,19.7
2023-07-11T04:52:14.142Z,19.7
2023-07-11T04:53:27.175Z,19.7
2023-07-11T04:54:40.136Z,19.6
2023-07-11T04:55:53.129Z,19.6
2023-07-11T04:57:06.160Z,19.6
2023-07-11T04:58:19.136Z,19.6
2023-07-11T04:59:32.141Z,19.8
2023-07-11T05:00:45.127Z,19.8
2023-07-11T05:01:58.168Z,19.8
2023-07-11T05:03:11.224Z,19.8
2023-07-11T05:04:24.310Z,19.8
2023-07-11T05:05:37.166Z,19.8
2023-07-11T05:06:50.766Z,19.9
2023-07-11T05:08:03.134Z,20
2023-07-11T05:09:16.148Z,20
2023-07-11T05:10:29.285Z,20
2023-07-11T05:11:42.135Z,19.9
2023-07-11T05:12:55.189Z,19.9
2023-07-11T05:14:08.348Z,20
2023-07-11T05:15:21.192Z,20.1
2023-07-11T05:16:33.857Z,20.1
2023-07-11T05:17:47.122Z,20.1
2023-07-11T05:19:00.145Z,20.1
2023-07-11T05:20:12.772Z,20.3
2023-07-11T05:21:25.731Z,20.3
2023-07-11T05:22:38.832Z,20.3
2023-07-11T05:23:51.780Z,20.3
2023-07-11T05:25:04.778Z,20.4
2023-07-11T05:26:17.881Z,20.4
2023-07-11T05:27:30.751Z,20.4
2023-07-11T05:28:43.819Z,20.4
2023-07-11T05:29:56.745Z,20.4
2023-07-11T05:31:09.777Z,20.7
2023-07-11T05:32:22.788Z,20.7
2023-07-11T05:33:35.758Z,20.7
2023-07-11T05:34:48.775Z,20.7
2023-07-11T05:36:01.783Z,20.8
2023-07-11T05:37:14.829Z,20.8
2023-07-11T05:38:27.804Z,20.8
2023-07-11T05:39:40.831Z,21
2023-07-11T05:40:53.800Z,21
2023-07-11T05:42:06.801Z,21
2023-07-11T05:43:19.803Z,21
2023-07-11T05:44:32.756Z,21.2
2023-07-11T05:45:45.786Z,21.2
2023-07-11T05:46:58.843Z,21.2
2023-07-11T05:48:11.877Z,21.2
2023-07-11T05:49:24.761Z,21.2
2023-07-11T05:50:37.929Z,21.3
2023-07-11T05:51:50.767Z,21.3
2023-07-11T05:53:03.966Z,21.3
2023-07-11T05:54:16.822Z,21.4
2023-07-11T05:55:29.770Z,21.5
2023-07-11T05:56:42.838Z,21.5
2023-07-11T05:57:55.890Z,21.5
2023-07-11T05:59:08.885Z,21.7
2023-07-11T06:00:21.794Z,21.7
2023-07-11T06:01:34.825Z,21.7
2023-07-11T06:02:47.824Z,21.8
2023-07-11T06:04:00.805Z,21.8
2023-07-11T06:05:13.781Z,21.8
2023-07-11T06:06:26.798Z,21.8
2023-07-11T06:07:39.778Z,21.8
2023-07-11T06:08:52.790Z,22.1
2023-07-11T06:10:05.758Z,22.1
2023-07-11T06:11:18.942Z,22
2023-07-11T06:12:31.777Z,22.2
2023-07-11T06:13:44.984Z,22.2
2023-07-11T06:14:57.758Z,22.2
2023-07-11T06:16:10.916Z,22.3
2023-07-11T06:17:23.837Z,22.4
2023-07-11T06:18:36.820Z,22.4
2023-07-11T06:19:49.864Z,22.4
2023-07-11T06:21:02.778Z,22.4
2023-07-11T06:22:15.906Z,22.6
2023-07-11T06:23:28.800Z,22.6
2023-07-11T06:24:41.980Z,22.7
2023-07-11T06:25:54.767Z,22.7
2023-07-11T06:27:07.852Z,22.7
2023-07-11T06:28:20.885Z,22.8
2023-07-11T06:29:33.790Z,22.9
2023-07-11T06:30:46.783Z,22.9
2023-07-11T06:31:59.789Z,22.9
2023-07-11T06:33:12.855Z,23
2023-07-11T06:34:25.822Z,23.1
2023-07-11T06:35:38.732Z,23.1
2023-07-11T06:36:51.750Z,23.1
2023-07-11T06:38:04.767Z,23.1
2023-07-11T06:39:17.761Z,23.1
2023-07-11T06:40:30.931Z,23.2
2023-07-11T06:41:43.789Z,23.2
2023-07-11T06:42:56.779Z,23.2
2023-07-11T06:44:09.789Z,23.4
2023-07-11T06:45:22.774Z,23.4
2023-07-11T06:46:35.737Z,23.4
2023-07-11T06:47:48.759Z,23.4
2023-07-11T06:49:01.761Z,23.5
2023-07-11T06:50:14.945Z,23.6
2023-07-11T06:51:27.466Z,23.6
2023-07-11T06:52:40.770Z,23.6
2023-07-11T06:53:53.797Z,23.6
2023-07-11T06:55:06.758Z,23.7
2023-07-11T06:56:19.708Z,23.8
2023-07-11T06:57:32.756Z,23.8
2023-07-11T06:58:45.853Z,23.7
2023-07-11T06:59:58.888Z,23.7
2023-07-11T07:01:19.538Z,23.8
2023-07-11T07:02:24.875Z,23.9
2023-07-11T07:03:37.801Z,23.9
2023-07-11T07:04:50.710Z,23.9
2023-07-11T07:06:03.769Z,23.9
2023-07-11T07:07:16.747Z,24.1
2023-07-11T07:08:29.863Z,24.1
2023-07-11T07:09:42.925Z,24.1
2023-07-11T07:10:55.801Z,24.2
2023-07-11T07:12:08.810Z,24.3
2023-07-11T07:13:21.732Z,24.3
2023-07-11T07:14:34.911Z,24.3
2023-07-11T07:15:47.764Z,24.3
2023-07-11T07:17:00.756Z,24.4
2023-07-11T07:18:13.739Z,24.4
2023-07-11T07:19:26.752Z,24.4
2023-07-11T07:20:48.520Z,24.4
2023-07-11T07:21:52.735Z,24.4
2023-07-11T07:23:05.808Z,24.6
2023-07-11T07:24:18.716Z,24.7
2023-07-11T07:25:31.730Z,24.7
2023-07-11T07:26:44.760Z,24.6
2023-07-11T07:27:57.753Z,24.8
2023-07-11T07:29:10.707Z,24.8
2023-07-11T07:30:23.746Z,24.8
2023-07-11T07:31:36.876Z,24.8
2023-07-11T07:32:49.830Z,24.9
2023-07-11T07:34:02.726Z,25
2023-07-11T07:35:15.763Z,25
2023-07-11T07:36:28.852Z,25
2023-07-11T07:37:41.893Z,24.9
2023-07-11T07:38:54.734Z,25.2
2023-07-11T07:40:07.734Z,25.2
2023-07-11T07:41:20.774Z,25.2
2023-07-11T07:42:33.796Z,25.2
2023-07-11T07:43:46.731Z,25.4
2023-07-11T07:44:59.752Z,25.4
2023-07-11T07:46:12.738Z,25.4
2023-07-11T07:47:25.740Z,25.4
2023-07-11T07:48:38.917Z,25.5
2023-07-11T07:49:55.103Z,25.6
2023-07-11T07:51:05.204Z,25.6
2023-07-11T07:52:17.843Z,25.6
2023-07-11T07:53:30.698Z,25.6
2023-07-11T07:54:43.711Z,25.9
2023-07-11T07:55:56.890Z,25.8
2023-07-11T07:57:09.687Z,25.8
2023-07-11T07:58:37.106Z,25.8
2023-07-11T07:59:35.761Z,25.8
2023-07-11T08:00:48.777Z,26.1
2023-07-11T08:02:01.748Z,26.1
2023-07-11T08:03:14.794Z,26.1
2023-07-11T08:04:27.779Z,26.1
2023-07-11T08:05:40.756Z,26.3
2023-07-11T08:06:53.748Z,26.3
2023-07-11T08:08:06.841Z,26.3
2023-07-11T08:09:19.704Z,26.2
2023-07-11T08:10:32.715Z,26.2
2023-07-11T08:11:45.739Z,26.5
2023-07-11T08:12:58.698Z,26.5
2023-07-11T08:14:11.739Z,26.5
2023-07-11T08:15:24.723Z,26.5
2023-07-11T08:16:37.783Z,26.5
2023-07-11T08:17:50.703Z,26.7
2023-07-11T08:19:03.714Z,26.7
2023-07-11T08:20:16.733Z,26.7
2023-07-11T08:21:29.717Z,26.7
2023-07-11T08:22:42.795Z,26.9
2023-07-11T08:23:55.693Z,26.9
2023-07-11T08:25:08.708Z,26.9
2023-07-11T08:26:21.736Z,26.9
2023-07-11T08:27:34.714Z,27.1
2023-07-11T08:28:47.757Z,27.1
2023-07-11T08:30:00.703Z,27.1
2023-07-11T08:31:13.787Z,27.1
2023-07-11T08:32:26.769Z,27.2
2023-07-11T08:33:39.739Z,27.3
2023-07-11T08:34:52.725Z,27.3
2023-07-11T08:36:05.728Z,27.3
2023-07-11T08:37:18.777Z,27.3
2023-07-11T08:38:31.709Z,27.4
2023-07-11T08:39:44.729Z,27.5
2023-07-11T08:40:57.752Z,27.5
2023-07-11T08:42:10.731Z,27.5
2023-07-11T08:43:23.727Z,27.5
2023-07-11T08:44:36.726Z,27.5
2023-07-11T08:45:57.054Z,27.7
2023-07-11T08:47:02.755Z,27.7
2023-07-11T08:48:15.757Z,27.7
2023-07-11T08:49:28.762Z,27.7
2023-07-11T08:50:43.400Z,27.7
2023-07-11T08:51:54.781Z,27.8
2023-07-11T08:53:07.745Z,27.9
2023-07-11T08:54:22.362Z,27.9
2023-07-11T08:55:33.858Z,27.9
2023-07-11T08:56:46.726Z,27.9
2023-07-11T08:57:59.756Z,27.9
2023-07-11T08:59:12.770Z,28.1
2023-07-11T09:00:25.746Z,28.1
2023-07-11T09:01:38.705Z,28.1
2023-07-11T09:02:51.929Z,28.1
2023-07-11T09:04:04.731Z,28.3
2023-07-11T09:05:17.698Z,28.4
2023-07-11T09:06:30.827Z,28.3
2023-07-11T09:07:43.740Z,28.3
2023-07-11T09:08:56.650Z,28.3
2023-07-11T09:10:09.702Z,28.6
2023-07-11T09:11:22.686Z,28.6
2023-07-11T09:12:35.711Z,28.6
2023-07-11T09:13:48.724Z,28.6
2023-07-11T09:15:01.677Z,28.6
2023-07-11T09:16:14.712Z,28.6
2023-07-11T09:17:27.721Z,28.6
2023-07-11T09:18:40.703Z,28.6
2023-07-11T09:19:53.726Z,28.6
2023-07-11T09:21:06.677Z,28.6
2023-07-11T09:22:19.699Z,28.6
2023-07-11T09:23:39.325Z,28.6
2023-07-11T09:24:45.705Z,28.6
2023-07-11T09:25:58.715Z,28.6
2023-07-11T09:27:11.703Z,28.6
2023-07-11T09:28:24.864Z,28.6
2023-07-11T09:29:37.763Z,28.6
2023-07-11T09:30:50.720Z,28.6
2023-07-11T09:32:03.774Z,28.6
2023-07-11T09:33:16.722Z,28.6
2023-07-11T09:34:29.699Z,28.6
2023-07-11T09:35:42.710Z,28.6
2023-07-11T09:36:56.703Z,28.7
2023-07-11T09:38:08.920Z,28.7
2023-07-11T09:39:21.698Z,28.7
2023-07-11T09:40:34.645Z,28.7
2023-07-11T09:41:50.538Z,28.7
2023-07-11T09:43:01.065Z,28.7
2023-07-11T09:44:13.691Z,29
2023-07-11T09:45:26.689Z,29
2023-07-11T09:46:39.793Z,29
2023-07-11T09:47:52.744Z,29
2023-07-11T09:49:05.689Z,29
2023-07-11T09:50:25.754Z,28.9
2023-07-11T09:51:31.714Z,28.9
2023-07-11T09:52:44.752Z,29.2
2023-07-11T09:53:57.700Z,29.2
2023-07-11T09:55:10.674Z,29.2
2023-07-11T09:56:23.686Z,29.2
2023-07-11T09:57:36.644Z,29.3
2023-07-11T09:58:49.583Z,29.4
2023-07-11T10:01:15.833Z,29.4
2023-07-11T10:02:28.891Z,29.4
2023-07-11T10:03:41.760Z,29.5
2023-07-11T10:04:54.735Z,29.6
2023-07-11T10:06:08.023Z,29.6
2023-07-11T10:07:20.694Z,29.6
2023-07-11T10:08:33.671Z,29.6
2023-07-11T10:09:46.688Z,29.8
2023-07-11T10:10:59.700Z,29.8
2023-07-11T10:12:13.051Z,29.8
2023-07-11T10:13:32.729Z,29.8
2023-07-11T10:14:39.044Z,29.8
2023-07-11T10:15:51.739Z,29.8
2023-07-11T10:17:05.299Z,29.9
2023-07-11T10:18:17.732Z,30.1
2023-07-11T10:19:30.704Z,30.1
2023-07-11T10:20:43.702Z,30
2023-07-11T10:21:56.881Z,30
2023-07-11T10:23:09.545Z,30.3
2023-07-11T10:24:22.806Z,30.3
2023-07-11T10:25:35.672Z,30.3
2023-07-11T10:26:48.893Z,30.3
2023-07-11T10:28:01.783Z,30.3
2023-07-11T10:29:20.017Z,30.5
2023-07-11T10:30:27.745Z,30.5
2023-07-11T10:31:40.735Z,30.5
2023-07-11T10:32:54.507Z,30.5
2023-07-11T10:34:06.863Z,30.5
2023-07-11T10:35:19.779Z,30.5
2023-07-11T10:36:32.876Z,30.5
2023-07-11T10:37:45.688Z,30.5
2023-07-11T10:38:58.695Z,30.5
2023-07-11T10:40:11.723Z,30.5
2023-07-11T10:41:24.708Z,30.5
2023-07-11T10:42:37.704Z,30.5
2023-07-11T10:43:50.712Z,30.5
2023-07-11T10:45:04.210Z,30.8
2023-07-11T10:46:16.733Z,30.6
2023-07-11T10:47:29.719Z,30.5
2023-07-11T10:48:42.866Z,30.5
2023-07-11T10:49:55.745Z,30.5
2023-07-11T10:51:08.720Z,30.5
2023-07-11T10:52:21.713Z,30.5
2023-07-11T10:53:34.739Z,30.5
2023-07-11T10:54:47.703Z,30.5
2023-07-11T10:56:00.727Z,30.5
2023-07-11T10:57:13.725Z,30.5
2023-07-11T10:58:26.739Z,30.8
2023-07-11T10:59:39.685Z,30.8
2023-07-11T11:00:52.738Z,30.8
2023-07-11T11:02:05.840Z,30.8
2023-07-11T11:03:18.868Z,30.8
2023-07-11T11:04:31.659Z,30.8
2023-07-11T11:05:44.686Z,30.8
2023-07-11T11:06:57.723Z,30.8
2023-07-11T11:08:10.680Z,30.8
2023-07-11T11:09:23.748Z,30.8
2023-07-11T11:10:36.691Z,30.8
2023-07-11T11:11:49.686Z,30.8
2023-07-11T11:13:02.698Z,30.8
2023-07-11T11:14:15.711Z,30.8
2023-07-11T11:15:28.675Z,30.8
2023-07-11T11:16:41.712Z,30.8
2023-07-11T11:17:54.866Z,30.8
2023-07-11T11:19:07.783Z,30.8
2023-07-11T11:20:20.750Z,30.8
2023-07-11T11:21:43.600Z,30.8
2023-07-11T11:22:46.675Z,30.8
2023-07-11T11:23:59.667Z,30.8
2023-07-11T11:25:12.661Z,30.8
2023-07-11T11:26:25.674Z,30.8
2023-07-11T11:27:38.932Z,30.8
2023-07-11T11:28:51.742Z,30.8
2023-07-11T11:30:04.721Z,30.8
2023-07-11T11:31:17.863Z,30.8
2023-07-11T11:32:30.786Z,30.8
2023-07-11T11:33:43.791Z,30.8
2023-07-11T11:35:08.816Z,30.8
2023-07-11T11:36:09.945Z,30.8
2023-07-11T11:37:22.718Z,30.8
2023-07-11T11:38:35.710Z,30.8
2023-07-11T11:39:48.635Z,30.8
2023-07-11T11:41:01.669Z,30.8
2023-07-11T11:42:14.678Z,30.8
2023-07-11T11:43:31.127Z,30.8
2023-07-11T11:47:36.877Z,30.8
2023-07-11T11:49:21.170Z,30.8
2023-07-11T11:51:58.690Z,30.8
2023-07-11T11:53:11.675Z,30.8
2023-07-11T11:54:24.674Z,30.8
2023-07-11T11:55:37.671Z,30.8
2023-07-11T11:56:50.713Z,30.8
2023-07-11T11:58:03.700Z,30.8
2023-07-11T11:59:16.669Z,30.8
2023-07-11T12:00:29.695Z,30.8
2023-07-11T12:01:42.830Z,30.7
2023-07-11T12:02:55.741Z,30.7
2023-07-11T12:04:08.747Z,30.7
2023-07-11T12:05:21.790Z,30.7
2023-07-11T12:06:34.693Z,30.7
2023-07-11T12:07:48.365Z,30.7
2023-07-11T12:09:00.750Z,30.7
2023-07-11T12:10:15.767Z,30.7
2023-07-11T12:11:26.673Z,30.7
2023-07-11T12:12:39.688Z,30.7
2023-07-11T12:13:52.685Z,30.7
2023-07-11T12:15:05.688Z,30.7
2023-07-11T12:16:27.524Z,30.7
2023-07-11T12:17:31.448Z,30.7
2023-07-11T12:18:44.659Z,30.7
2023-07-11T12:19:57.783Z,30.7
2023-07-11T12:21:10.665Z,30.7
2023-07-11T12:22:23.660Z,30.7
2023-07-11T12:24:03.007Z,30.7
2023-07-11T12:24:49.629Z,30.7
2023-07-11T12:26:02.637Z,30.7
2023-07-11T12:27:15.775Z,31
2023-07-11T12:28:28.688Z,31
2023-07-11T12:29:41.680Z,31
2023-07-11T12:30:54.747Z,31
2023-07-11T12:32:07.812Z,31
2023-07-11T12:33:20.681Z,31
2023-07-11T12:34:33.660Z,31
2023-07-11T12:35:46.634Z,31
2023-07-11T12:36:59.820Z,31
2023-07-11T12:38:12.665Z,31
2023-07-11T12:39:25.667Z,31
2023-07-11T12:40:38.801Z,31
2023-07-11T12:41:51.306Z,31
2023-07-11T12:43:04.650Z,31
2023-07-11T12:44:17.719Z,31
2023-07-11T12:45:30.631Z,31
2023-07-11T12:46:43.691Z,31
2023-07-11T12:47:56.676Z,31
2023-07-11T12:49:09.609Z,31
2023-07-11T12:50:22.639Z,31
2023-07-11T12:51:35.638Z,31
2023-07-11T12:52:48.672Z,31
2023-07-11T12:54:01.682Z,31
2023-07-11T12:55:14.650Z,31
2023-07-11T12:56:27.815Z,31
2023-07-11T12:57:40.671Z,31
2023-07-11T12:58:53.643Z,31
2023-07-11T13:00:06.705Z,31
2023-07-11T13:01:19.671Z,31
2023-07-11T13:02:32.691Z,31
2023-07-11T13:03:45.671Z,31
2023-07-11T13:04:58.696Z,31
2023-07-11T13:06:21.557Z,31
2023-07-11T13:07:24.641Z,31
2023-07-11T13:08:37.646Z,31
2023-07-11T13:09:50.656Z,31
2023-07-11T13:11:03.626Z,31
2023-07-11T13:12:16.653Z,31
2023-07-11T13:13:29.753Z,31
2023-07-11T13:14:42.678Z,31.1
2023-07-11T13:15:55.624Z,31.3
2023-07-11T13:17:08.673Z,31.2
2023-07-11T13:18:21.639Z,31.2
2023-07-11T13:19:34.648Z,31.2
2023-07-11T13:20:47.660Z,31.2
2023-07-11T13:22:00.624Z,31.2
2023-07-11T13:23:13.668Z,31.2
2023-07-11T13:24:26.674Z,31.2
2023-07-11T13:25:39.634Z,31.2
2023-07-11T13:26:52.628Z,31.2
2023-07-11T13:28:05.659Z,31.2
2023-07-11T13:29:18.628Z,31.2
2023-07-11T13:30:31.652Z,31.2
2023-07-11T13:31:44.659Z,31.2
2023-07-11T13:32:57.714Z,31.2
2023-07-11T13:34:10.656Z,31.2
2023-07-11T13:35:23.777Z,31.2
2023-07-11T13:36:36.652Z,31.2
2023-07-11T13:37:49.640Z,31.2
2023-07-11T13:39:02.608Z,31.2
2023-07-11T13:40:15.648Z,31.2
2023-07-11T13:41:28.660Z,31.2
2023-07-11T13:42:41.640Z,31.2
2023-07-11T13:43:54.646Z,31.2
2023-07-11T13:45:07.657Z,31.2
2023-07-11T13:46:20.691Z,31.2
2023-07-11T13:47:33.789Z,31.2
2023-07-11T13:48:48.397Z,31.2
2023-07-11T13:49:59.670Z,31.2
2023-07-11T13:51:12.643Z,31.2
2023-07-11T13:52:25.662Z,31.2
2023-07-11T13:53:38.649Z,31.2
2023-07-11T13:54:51.658Z,31.2
2023-07-11T13:56:04.660Z,31.5
2023-07-11T13:57:17.664Z,31.5
2023-07-11T13:58:30.686Z,31.5
2023-07-11T13:59:43.670Z,31.5
2023-07-11T14:00:56.688Z,31.5
2023-07-11T14:02:09.910Z,31.5
2023-07-11T14:03:22.852Z,31.5
2023-07-11T14:04:35.900Z,31.5
2023-07-11T14:05:48.692Z,31.5
2023-07-11T14:07:01.711Z,31.5
2023-07-11T14:08:14.643Z,31.5
2023-07-11T14:09:27.729Z,31.5
2023-07-11T14:10:40.717Z,31.5
2023-07-11T14:11:53.752Z,31.5
2023-07-11T14:13:07.034Z,31.5
2023-07-11T14:14:33.332Z,31.5
2023-07-11T14:15:32.674Z,31.5
2023-07-11T14:16:45.656Z,31.5
2023-07-11T14:17:58.724Z,31.5
2023-07-11T14:19:11.623Z,31.4
2023-07-11T14:20:24.741Z,31.4
2023-07-11T14:21:37.670Z,31.4
2023-07-11T14:22:50.665Z,31.4
2023-07-11T14:24:03.639Z,31.4
2023-07-11T14:25:16.657Z,31.4
2023-07-11T14:26:29.661Z,31.4
2023-07-11T14:27:42.708Z,31.6
2023-07-11T14:28:55.668Z,31.7
2023-07-11T14:30:08.835Z,31.7
2023-07-11T14:31:21.713Z,31.7
2023-07-11T14:32:34.667Z,31.7
2023-07-11T14:33:47.662Z,31.7
2023-07-11T14:35:00.598Z,31.7
2023-07-11T14:36:13.697Z,31.7
2023-07-11T14:37:26.689Z,31.7
2023-07-11T14:38:39.656Z,31.7
2023-07-11T14:39:52.771Z,31.7
2023-07-11T14:41:07.701Z,31.7
2023-07-11T14:42:18.679Z,31.7
2023-07-11T14:43:32.218Z,31.7
2023-07-11T14:44:44.715Z,31.7
2023-07-11T14:45:57.631Z,31.7
2023-07-11T14:47:10.804Z,31.7
2023-07-11T14:48:23.643Z,31.7
2023-07-11T14:49:36.732Z,31.7
2023-07-11T14:50:49.749Z,31.7
2023-07-11T14:52:02.596Z,31.7
2023-07-11T14:53:15.768Z,31.7
2023-07-11T14:54:28.661Z,31.7
2023-07-11T14:58:07.638Z,31.7
2023-07-11T14:59:20.697Z,31.7
2023-07-11T15:00:33.653Z,31.7
2023-07-11T15:01:46.656Z,31.7
2023-07-11T15:02:59.720Z,31.7
2023-07-11T15:10:17.728Z,31.7
2023-07-11T15:11:33.581Z,31.7
2023-07-11T15:16:22.644Z,31.7
2023-07-11T15:17:35.710Z,31.7
2023-07-11T15:18:48.689Z,31.7
2023-07-11T15:20:01.696Z,31.7
2023-07-11T15:21:14.637Z,31.7
2023-07-11T15:22:27.647Z,31.7
2023-07-11T15:23:40.576Z,31.7
2023-07-11T15:24:54.371Z,31.7
2023-07-11T15:26:06.778Z,31.7
2023-07-11T15:27:19.639Z,31.7
2023-07-11T15:28:32.658Z,31.7
2023-07-11T15:29:45.640Z,31.7
2023-07-11T15:30:58.741Z,31.7
2023-07-11T15:32:11.835Z,31.7
2023-07-11T15:33:24.653Z,31.7
2023-07-11T15:34:37.660Z,31.7
2023-07-11T15:35:50.675Z,31.7
2023-07-11T15:37:03.670Z,31.7
2023-07-11T15:38:16.690Z,31.7
2023-07-11T15:39:29.702Z,31.7
2023-07-11T15:40:42.639Z,31.7
2023-07-11T15:41:55.625Z,31.7
2023-07-11T15:43:08.626Z,31.7
2023-07-11T15:44:21.806Z,31.7
2023-07-11T15:45:34.642Z,31.7
2023-07-11T15:46:47.656Z,31.7
2023-07-11T15:48:00.779Z,31.7
2023-07-11T15:49:13.608Z,31.7
2023-07-11T15:50:26.616Z,31.7
2023-07-11T15:51:39.605Z,31.7
2023-07-11T15:52:52.631Z,31.7
2023-07-11T15:54:05.659Z,31.7
2023-07-11T15:55:18.826Z,31.7
2023-07-11T15:56:31.641Z,31.7
2023-07-11T15:57:44.607Z,31.7
2023-07-11T15:58:57.575Z,31.7
2023-07-11T16:00:10.799Z,31.7
2023-07-11T16:01:23.618Z,31.7
2023-07-11T16:02:36.712Z,31.7
2023-07-11T16:03:49.712Z,31.7
2023-07-11T16:05:02.458Z,31.7
2023-07-11T16:06:15.640Z,31.7
2023-07-11T16:07:28.787Z,31.7
2023-07-11T16:08:41.685Z,31.7
2023-07-11T16:09:54.728Z,31.7
2023-07-11T16:11:08.176Z,31.7
2023-07-11T16:12:20.681Z,31.7
2023-07-11T16:13:33.759Z,31.7
2023-07-11T16:14:47.001Z,31.7
2023-07-11T16:16:00.692Z,31.4
2023-07-11T16:17:12.609Z,31.4
2023-07-11T16:18:25.503Z,31.4
2023-07-11T16:19:38.673Z,31.4
2023-07-11T16:20:51.301Z,31.4
2023-07-11T16:22:04.784Z,31.4
2023-07-11T16:23:17.624Z,31.4
2023-07-11T16:24:30.667Z,31.4
2023-07-11T16:25:43.606Z,31.4
2023-07-11T16:26:56.683Z,31.4
2023-07-11T16:28:09.743Z,31.4
2023-07-11T16:29:22.467Z,31.5
2023-07-11T16:30:35.650Z,31.4
2023-07-11T16:31:49.330Z,31.5
2023-07-11T16:33:01.610Z,31.5
2023-07-11T16:34:14.596Z,31.5